createdAt,value
2022-10-20T00:00:27.878Z,6.21
2022-10-20T00:01:30.027Z,6.21
2022-10-20T00:02:33.211Z,6.21
2022-10-20T00:03:35.706Z,6.21
2022-10-20T00:04:38.694Z,6.22
2022-10-20T00:05:40.982Z,6.23
2022-10-20T00:06:44.015Z,6.23
2022-10-20T00:07:46.215Z,6.23
2022-10-20T00:08:49.427Z,6.24
2022-10-20T00:09:54.678Z,6.26
2022-10-20T00:10:58.586Z,6.27
2022-10-20T00:12:01.652Z,6.27
2022-10-20T00:13:03.700Z,6.28
2022-10-20T00:14:08.199Z,6.28
2022-10-20T00:15:11.090Z,6.28
2022-10-20T00:16:14.367Z,6.29
2022-10-20T00:17:16.417Z,6.29
2022-10-20T00:18:19.961Z,6.28
2022-10-20T00:19:22.058Z,6.28
2022-10-20T00:20:25.640Z,6.27
2022-10-20T00:21:28.842Z,6.27
2022-10-20T00:22:33.236Z,6.28
2022-10-20T00:23:35.952Z,6.28
2022-10-20T00:24:38.991Z,6.29
2022-10-20T00:25:41.111Z,6.27
2022-10-20T00:26:44.112Z,6.28
2022-10-20T00:27:46.638Z,6.29
2022-10-20T00:28:50.207Z,6.29
2022-10-20T00:29:53.623Z,6.28
2022-10-20T00:30:56.735Z,6.29
2022-10-20T00:31:58.749Z,6.29
2022-10-20T00:33:02.946Z,6.29
2022-10-20T00:34:05.024Z,6.28
2022-10-20T00:35:08.824Z,6.29
2022-10-20T00:36:14.496Z,6.29
2022-10-20T00:37:17.539Z,6.29
2022-10-20T00:38:19.619Z,6.27
2022-10-20T00:39:22.709Z,6.27
2022-10-20T00:40:25.759Z,6.26
2022-10-20T00:41:29.382Z,6.25
2022-10-20T00:42:31.492Z,6.25
2022-10-20T00:43:48.926Z,6.25
2022-10-20T00:44:55.121Z,6.25
2022-10-20T00:45:58.909Z,6.25
2022-10-20T00:47:01.648Z,6.23
2022-10-20T00:48:09.386Z,6.23
2022-10-20T00:49:15.950Z,6.21
2022-10-20T00:50:22.807Z,6.22
2022-10-20T00:51:27.625Z,6.22
2022-10-20T00:52:30.704Z,6.23
2022-10-20T00:53:34.232Z,6.18
2022-10-20T00:54:37.724Z,6.22
2022-10-20T00:55:42.776Z,6.22
2022-10-20T00:56:48.325Z,6.22
2022-10-20T00:57:52.222Z,6.22
2022-10-20T00:58:55.717Z,6.23
2022-10-20T00:59:59.322Z,6.24
2022-10-20T01:01:02.539Z,6.23
2022-10-20T01:02:07.070Z,6.24
2022-10-20T01:03:16.399Z,6.24
2022-10-20T01:04:19.042Z,6.25
2022-10-20T01:05:22.581Z,6.25
2022-10-20T01:06:24.637Z,6.25
2022-10-20T01:07:27.670Z,6.26
2022-10-20T01:08:29.719Z,6.25
2022-10-20T01:09:33.414Z,6.26
2022-10-20T01:10:41.330Z,6.26
2022-10-20T01:11:55.969Z,6.22
2022-10-20T01:13:06.314Z,6.26
2022-10-20T01:14:24.480Z,6.27
2022-10-20T01:15:34.997Z,6.28
2022-10-20T01:16:48.690Z,6.27
2022-10-20T01:18:04.168Z,6.27
2022-10-20T01:19:25.903Z,6.26
2022-10-20T01:20:45.984Z,6.26
2022-10-20T01:22:22.350Z,6.26
2022-10-20T01:24:03.866Z,6.25
2022-10-20T01:25:16.731Z,6.22
2022-10-20T01:26:48.322Z,6.21
2022-10-20T01:27:55.143Z,6.19
2022-10-20T01:29:00.961Z,6.19
2022-10-20T01:30:12.638Z,6.18
2022-10-20T01:31:26.211Z,6.17
2022-10-20T01:32:36.599Z,6.15
2022-10-20T01:33:46.388Z,6.15
2022-10-20T01:34:57.410Z,6.14
2022-10-20T01:36:07.098Z,6.13
2022-10-20T01:37:28.208Z,6.10
2022-10-20T01:38:44.332Z,6.10
2022-10-20T01:39:52.544Z,6.09
2022-10-20T01:41:01.623Z,6.10
2022-10-20T01:42:09.075Z,5.88
2022-10-20T01:43:16.373Z,6.08
2022-10-20T01:44:21.535Z,6.07
2022-10-20T01:45:28.982Z,6.05
2022-10-20T01:46:32.300Z,6.05
2022-10-20T01:47:38.024Z,6.04
2022-10-20T01:48:40.962Z,6.03
2022-10-20T01:49:44.909Z,6.02
2022-10-20T01:50:48.442Z,5.99
2022-10-20T01:51:51.489Z,5.99
2022-10-20T01:52:57.502Z,5.99
2022-10-20T01:54:00.997Z,5.92
2022-10-20T01:55:11.337Z,5.99
2022-10-20T01:56:19.731Z,5.98
2022-10-20T01:57:37.566Z,5.98
2022-10-20T01:59:10.428Z,5.97
2022-10-20T02:00:14.262Z,5.97
2022-10-20T02:01:27.450Z,5.96
2022-10-20T02:02:58.845Z,5.95
2022-10-20T02:04:04.026Z,5.95
2022-10-20T02:05:18.816Z,5.93
2022-10-20T02:06:35.952Z,5.92
2022-10-20T02:07:39.649Z,5.91
2022-10-20T02:08:46.565Z,5.91
2022-10-20T02:11:00.024Z,5.88
2022-10-20T02:12:07.081Z,5.87
2022-10-20T02:13:13.388Z,5.72
2022-10-20T02:14:18.755Z,5.85
2022-10-20T02:15:26.103Z,5.77
2022-10-20T02:16:32.511Z,5.83
2022-10-20T02:17:39.614Z,5.82
2022-10-20T02:18:44.143Z,5.81
2022-10-20T02:19:48.572Z,5.79
2022-10-20T02:20:54.105Z,5.77
2022-10-20T02:21:59.173Z,5.76
2022-10-20T02:23:04.741Z,5.74
2022-10-20T02:24:10.184Z,5.69
2022-10-20T02:25:13.172Z,5.70
2022-10-20T02:26:19.570Z,5.70
2022-10-20T02:27:27.213Z,5.70
2022-10-20T02:28:30.961Z,5.70
2022-10-20T02:29:38.623Z,5.67
2022-10-20T02:30:43.271Z,5.68
2022-10-20T02:31:46.423Z,5.66
2022-10-20T02:32:52.886Z,5.65
2022-10-20T02:33:56.786Z,5.64
2022-10-20T02:35:03.612Z,5.63
2022-10-20T02:36:13.642Z,5.62
2022-10-20T02:38:18.769Z,5.60
2022-10-20T02:39:21.847Z,5.59
2022-10-20T02:40:23.936Z,5.58
2022-10-20T02:41:26.929Z,5.57
2022-10-20T02:42:28.949Z,5.58
2022-10-20T02:43:32.014Z,5.57
2022-10-20T02:44:35.502Z,5.56
2022-10-20T02:45:38.622Z,5.55
2022-10-20T02:46:40.645Z,5.54
2022-10-20T02:47:43.670Z,5.54
2022-10-20T02:48:45.750Z,5.52
2022-10-20T02:49:48.782Z,5.52
2022-10-20T02:50:50.910Z,5.51
2022-10-20T02:51:54.148Z,5.50
2022-10-20T02:52:56.192Z,5.23
2022-10-20T02:53:59.241Z,5.48
2022-10-20T02:55:02.701Z,5.48
2022-10-20T02:56:06.573Z,5.47
2022-10-20T02:57:08.616Z,5.46
2022-10-20T02:58:11.701Z,5.46
2022-10-20T02:59:14.765Z,5.45
2022-10-20T03:00:19.327Z,5.45
2022-10-20T03:01:22.522Z,5.44
2022-10-20T03:02:25.687Z,5.44
2022-10-20T03:03:27.764Z,5.42
2022-10-20T03:04:30.820Z,5.42
2022-10-20T03:05:32.874Z,5.39
2022-10-20T03:06:36.091Z,5.39
2022-10-20T03:07:38.397Z,5.38
2022-10-20T03:08:42.259Z,5.37
2022-10-20T03:09:44.350Z,5.34
2022-10-20T03:10:47.360Z,5.32
2022-10-20T03:11:49.395Z,5.30
2022-10-20T03:12:52.424Z,5.29
2022-10-20T03:13:54.434Z,5.27
2022-10-20T03:14:57.460Z,5.26
2022-10-20T03:16:01.808Z,5.24
2022-10-20T03:17:05.055Z,5.23
2022-10-20T03:18:07.221Z,5.22
2022-10-20T03:19:11.658Z,5.20
2022-10-20T03:20:14.096Z,5.19
2022-10-20T03:21:17.190Z,5.17
2022-10-20T03:22:19.262Z,5.16
2022-10-20T03:23:22.669Z,5.14
2022-10-20T03:24:24.815Z,5.13
2022-10-20T03:25:27.831Z,5.12
2022-10-20T03:26:29.917Z,5.11
2022-10-20T03:27:33.050Z,5.10
2022-10-20T03:28:35.228Z,5.09
2022-10-20T03:29:38.227Z,5.08
2022-10-20T03:30:40.344Z,5.08
2022-10-20T03:31:45.324Z,5.07
2022-10-20T03:32:47.583Z,5.06
2022-10-20T03:33:50.628Z,5.04
2022-10-20T03:34:52.628Z,5.04
2022-10-20T03:35:55.657Z,5.03
2022-10-20T03:36:58.703Z,5.02
2022-10-20T03:38:00.701Z,5.00
2022-10-20T03:39:03.751Z,4.95
2022-10-20T03:40:06.953Z,4.98
2022-10-20T03:41:10.352Z,4.92
2022-10-20T03:42:13.432Z,4.97
2022-10-20T03:43:15.451Z,4.95
2022-10-20T03:44:18.482Z,4.90
2022-10-20T03:45:20.510Z,4.94
2022-10-20T03:46:23.677Z,4.94
2022-10-20T03:47:27.101Z,4.92
2022-10-20T03:48:30.413Z,4.91
2022-10-20T03:49:33.956Z,4.91
2022-10-20T03:50:39.400Z,4.89
2022-10-20T03:51:41.434Z,4.89
2022-10-20T03:52:44.535Z,4.88
2022-10-20T03:53:46.515Z,4.88
2022-10-20T03:54:49.720Z,4.87
2022-10-20T03:55:51.840Z,4.86
2022-10-20T03:56:56.064Z,4.85
2022-10-20T03:57:58.536Z,4.85
2022-10-20T03:59:01.605Z,4.86
2022-10-20T04:00:04.679Z,4.84
2022-10-20T04:01:16.518Z,4.84
2022-10-20T04:02:29.997Z,4.83
2022-10-20T04:03:34.649Z,4.83
2022-10-20T04:04:36.717Z,4.82
2022-10-20T04:05:40.335Z,4.81
2022-10-20T04:06:42.476Z,4.81
2022-10-20T04:07:45.576Z,4.79
2022-10-20T04:08:47.672Z,4.79
2022-10-20T04:09:50.750Z,4.79
2022-10-20T04:10:52.878Z,4.78
2022-10-20T04:11:55.942Z,4.79
2022-10-20T04:12:58.141Z,4.78
2022-10-20T04:14:01.213Z,4.79
2022-10-20T04:15:04.072Z,4.79
2022-10-20T04:16:07.777Z,4.76
2022-10-20T04:17:09.921Z,4.78
2022-10-20T04:18:12.923Z,4.78
2022-10-20T04:19:16.429Z,4.77
2022-10-20T04:20:19.692Z,4.78
2022-10-20T04:21:22.181Z,4.78
2022-10-20T04:22:25.186Z,4.77
2022-10-20T04:23:27.236Z,4.78
2022-10-20T04:24:30.409Z,4.78
2022-10-20T04:25:32.403Z,4.76
2022-10-20T04:26:35.380Z,4.66
2022-10-20T04:27:37.831Z,4.75
2022-10-20T04:28:41.096Z,4.76
2022-10-20T04:29:43.253Z,4.75
2022-10-20T04:30:46.932Z,4.69
2022-10-20T04:31:49.300Z,4.76
2022-10-20T04:32:52.459Z,4.74
2022-10-20T04:33:54.521Z,4.77
2022-10-20T04:34:58.953Z,4.76
2022-10-20T04:36:01.905Z,4.76
2022-10-20T04:37:04.955Z,4.77
2022-10-20T04:38:07.138Z,4.77
2022-10-20T04:39:10.303Z,4.78
2022-10-20T04:40:12.429Z,4.79
2022-10-20T04:41:15.445Z,4.78
2022-10-20T04:42:17.688Z,4.78
2022-10-20T04:43:20.737Z,4.75
2022-10-20T04:44:22.799Z,4.79
2022-10-20T04:45:25.913Z,4.79
2022-10-20T04:46:27.939Z,4.79
2022-10-20T04:47:33.222Z,4.80
2022-10-20T04:48:35.472Z,4.79
2022-10-20T04:49:38.518Z,4.75
2022-10-20T04:50:41.951Z,4.80
2022-10-20T04:51:44.984Z,4.81
2022-10-20T04:52:47.029Z,4.78
2022-10-20T04:53:50.220Z,4.82
2022-10-20T04:54:52.276Z,4.81
2022-10-20T04:55:56.126Z,4.81
2022-10-20T04:56:58.362Z,4.82
2022-10-20T04:58:01.393Z,4.84
2022-10-20T04:59:04.146Z,4.83
2022-10-20T05:00:08.370Z,4.84
2022-10-20T05:01:10.560Z,4.84
2022-10-20T05:02:13.696Z,4.84
2022-10-20T05:03:15.771Z,4.85
2022-10-20T05:04:21.422Z,4.84
2022-10-20T05:05:23.538Z,4.83
2022-10-20T05:06:29.315Z,4.85
2022-10-20T05:07:31.359Z,4.81
2022-10-20T05:08:34.406Z,4.86
2022-10-20T05:09:37.494Z,4.86
2022-10-20T05:10:39.592Z,4.85
2022-10-20T05:11:42.977Z,4.82
2022-10-20T05:12:45.023Z,4.84
2022-10-20T05:13:48.916Z,4.86
2022-10-20T05:14:50.972Z,4.86
2022-10-20T05:15:54.388Z,4.85
2022-10-20T05:16:57.437Z,4.86
2022-10-20T05:17:59.470Z,4.86
2022-10-20T05:19:02.809Z,4.87
2022-10-20T05:20:06.112Z,4.87
2022-10-20T05:21:10.759Z,4.87
2022-10-20T05:22:14.151Z,4.88
2022-10-20T05:23:17.197Z,4.88
2022-10-20T05:24:21.405Z,4.88
2022-10-20T05:25:36.053Z,4.88
2022-10-20T05:26:38.759Z,4.88
2022-10-20T05:27:41.748Z,4.89
2022-10-20T05:28:45.637Z,4.89
2022-10-20T05:29:48.655Z,4.87
2022-10-20T05:30:50.663Z,4.89
2022-10-20T05:31:53.723Z,4.88
2022-10-20T05:32:55.948Z,4.90
2022-10-20T05:33:59.295Z,4.86
2022-10-20T05:35:01.336Z,4.91
2022-10-20T05:36:09.316Z,4.91
2022-10-20T05:37:12.379Z,4.92
2022-10-20T05:38:15.749Z,4.92
2022-10-20T05:39:18.799Z,4.93
2022-10-20T05:40:20.896Z,4.93
2022-10-20T05:41:26.035Z,4.94
2022-10-20T05:42:29.040Z,4.94
2022-10-20T05:43:31.129Z,4.95
2022-10-20T05:44:34.172Z,4.96
2022-10-20T05:45:36.227Z,4.98
2022-10-20T05:46:41.614Z,4.99
2022-10-20T05:47:43.973Z,5.00
2022-10-20T05:48:47.670Z,5.00
2022-10-20T05:49:50.721Z,5.02
2022-10-20T05:50:52.724Z,5.03
2022-10-20T05:51:55.734Z,4.99
2022-10-20T05:52:58.153Z,5.05
2022-10-20T05:54:02.557Z,5.07
2022-10-20T05:55:05.481Z,5.08
2022-10-20T05:56:10.743Z,5.09
2022-10-20T05:57:13.894Z,5.10
2022-10-20T05:58:17.663Z,5.10
2022-10-20T05:59:24.151Z,5.11
2022-10-20T06:00:30.983Z,5.13
2022-10-20T06:01:47.404Z,5.14
2022-10-20T06:02:49.597Z,5.15
2022-10-20T06:03:54.410Z,5.14
2022-10-20T06:04:57.485Z,5.18
2022-10-20T06:05:59.907Z,5.19
2022-10-20T06:07:02.973Z,5.20
2022-10-20T06:08:05.327Z,5.23
2022-10-20T06:09:10.331Z,5.24
2022-10-20T06:10:12.337Z,5.25
2022-10-20T06:11:16.647Z,5.27
2022-10-20T06:12:18.676Z,5.28
2022-10-20T06:13:21.742Z,5.30
2022-10-20T06:14:25.913Z,5.31
2022-10-20T06:15:27.916Z,5.33
2022-10-20T06:16:32.727Z,5.33
2022-10-20T06:17:35.762Z,5.36
2022-10-20T06:18:38.753Z,5.38
2022-10-20T06:19:41.993Z,5.39
2022-10-20T06:20:44.072Z,5.41
2022-10-20T06:21:48.907Z,5.42
2022-10-20T06:22:51.635Z,5.44
2022-10-20T06:23:55.020Z,5.45
2022-10-20T06:24:58.422Z,5.46
2022-10-20T06:26:05.470Z,5.48
2022-10-20T06:27:09.007Z,5.50
2022-10-20T06:28:11.002Z,5.52
2022-10-20T06:29:16.665Z,5.54
2022-10-20T06:30:18.688Z,5.56
2022-10-20T06:31:23.216Z,5.58
2022-10-20T06:32:26.248Z,5.60
2022-10-20T06:33:30.539Z,5.62
2022-10-20T06:34:33.662Z,5.63
2022-10-20T06:35:35.684Z,5.65
2022-10-20T06:36:40.493Z,5.67
2022-10-20T06:37:42.562Z,5.69
2022-10-20T06:38:46.102Z,5.70
2022-10-20T06:39:48.095Z,5.71
2022-10-20T06:40:52.564Z,5.72
2022-10-20T06:41:55.847Z,5.74
2022-10-20T06:42:57.905Z,5.77
2022-10-20T06:44:00.948Z,5.79
2022-10-20T06:45:03.078Z,5.79
2022-10-20T06:46:08.386Z,5.80
2022-10-20T06:47:13.241Z,5.77
2022-10-20T06:48:16.308Z,5.84
2022-10-20T06:49:21.332Z,5.87
2022-10-20T06:50:26.671Z,5.88
2022-10-20T06:51:28.842Z,5.90
2022-10-20T06:52:31.897Z,5.92
2022-10-20T06:53:35.378Z,5.93
2022-10-20T06:54:38.405Z,5.96
2022-10-20T06:55:40.401Z,5.98
2022-10-20T06:56:44.783Z,5.99
2022-10-20T06:57:47.200Z,6.01
2022-10-20T06:58:51.609Z,6.03
2022-10-20T06:59:54.607Z,6.05
2022-10-20T07:01:00.722Z,6.09
2022-10-20T07:02:03.748Z,6.12
2022-10-20T07:03:05.972Z,6.14
2022-10-20T07:04:12.270Z,6.17
2022-10-20T07:05:15.283Z,6.21
2022-10-20T07:06:20.003Z,6.25
2022-10-20T07:07:23.022Z,6.27
2022-10-20T07:08:27.994Z,6.30
2022-10-20T07:09:31.068Z,6.33
2022-10-20T07:10:33.064Z,6.32
2022-10-20T07:11:36.814Z,6.38
2022-10-20T07:12:40.225Z,6.43
2022-10-20T07:13:44.107Z,6.45
2022-10-20T07:14:47.106Z,6.47
2022-10-20T07:15:49.135Z,6.50
2022-10-20T07:16:52.215Z,6.52
2022-10-20T07:17:54.251Z,6.56
2022-10-20T07:18:58.427Z,6.58
2022-10-20T07:20:00.533Z,6.64
2022-10-20T07:21:06.547Z,6.67
2022-10-20T07:22:09.585Z,6.72
2022-10-20T07:23:11.574Z,6.76
2022-10-20T07:24:15.781Z,6.81
2022-10-20T07:25:20.146Z,6.85
2022-10-20T07:26:25.145Z,6.90
2022-10-20T07:27:27.182Z,6.95
2022-10-20T07:28:31.623Z,6.99
2022-10-20T07:29:34.909Z,7.00
2022-10-20T07:30:39.788Z,7.06
2022-10-20T07:31:44.855Z,7.10
2022-10-20T07:32:46.921Z,7.15
2022-10-20T07:34:06.972Z,7.20
2022-10-20T07:35:13.519Z,7.24
2022-10-20T07:36:17.802Z,7.28
2022-10-20T07:37:20.847Z,7.32
2022-10-20T07:38:22.864Z,7.36
2022-10-20T07:39:26.615Z,7.38
2022-10-20T07:40:28.729Z,7.42
2022-10-20T07:41:32.353Z,7.45
2022-10-20T07:42:35.780Z,7.49
2022-10-20T07:43:39.954Z,7.52
2022-10-20T07:44:42.963Z,7.57
2022-10-20T07:45:45.397Z,7.61
2022-10-20T07:46:48.476Z,7.65
2022-10-20T07:47:50.510Z,7.68
2022-10-20T07:48:53.600Z,7.73
2022-10-20T07:49:56.654Z,7.78
2022-10-20T07:52:18.585Z,7.88
2022-10-20T07:53:20.670Z,7.93
2022-10-20T07:54:23.837Z,7.98
2022-10-20T07:55:38.106Z,8.03
2022-10-20T07:56:44.115Z,8.08
2022-10-20T07:57:47.346Z,8.09
2022-10-20T07:58:51.807Z,8.17
2022-10-20T07:59:54.868Z,8.24
2022-10-20T08:00:56.880Z,8.28
2022-10-20T08:02:00.300Z,8.32
2022-10-20T08:03:02.629Z,8.36
2022-10-20T08:04:05.839Z,8.41
2022-10-20T08:05:08.694Z,8.45
2022-10-20T08:06:11.808Z,8.50
2022-10-20T08:07:14.855Z,8.53
2022-10-20T08:08:17.003Z,8.56
2022-10-20T08:09:20.128Z,8.61
2022-10-20T08:10:22.265Z,8.65
2022-10-20T08:11:25.356Z,8.66
2022-10-20T08:12:28.414Z,8.70
2022-10-20T08:13:31.995Z,8.75
2022-10-20T08:14:37.875Z,8.79
2022-10-20T08:15:48.401Z,8.83
2022-10-20T08:16:52.848Z,8.88
2022-10-20T08:17:54.887Z,8.91
2022-10-20T08:20:21.319Z,9.01
2022-10-20T08:21:26.720Z,9.07
2022-10-20T08:22:28.741Z,9.10
2022-10-20T08:23:31.826Z,9.16
2022-10-20T08:24:34.877Z,9.19
2022-10-20T08:25:36.923Z,9.23
2022-10-20T08:26:39.963Z,9.27
2022-10-20T08:27:42.013Z,9.31
2022-10-20T08:28:44.991Z,9.35
2022-10-20T08:29:59.882Z,9.40
2022-10-20T08:31:09.592Z,9.44
2022-10-20T08:32:13.136Z,9.47
2022-10-20T08:33:16.159Z,9.48
2022-10-20T08:34:19.235Z,9.52
2022-10-20T08:35:21.948Z,9.52
2022-10-20T08:36:25.100Z,9.58
2022-10-20T08:37:31.145Z,9.60
2022-10-20T08:38:33.550Z,9.62
2022-10-20T08:39:36.571Z,9.64
2022-10-20T08:40:43.091Z,9.66
2022-10-20T08:42:07.989Z,9.69
2022-10-20T08:43:17.534Z,9.71
2022-10-20T08:44:25.244Z,9.70
2022-10-20T08:45:32.680Z,9.75
2022-10-20T08:46:41.580Z,9.77
2022-10-20T08:47:45.975Z,9.76
2022-10-20T08:48:49.891Z,9.79
2022-10-20T08:49:52.265Z,9.81
2022-10-20T08:50:57.830Z,9.82
2022-10-20T08:52:00.205Z,9.84
2022-10-20T08:53:03.345Z,9.86
2022-10-20T08:54:11.971Z,9.89
2022-10-20T08:55:23.605Z,9.92
2022-10-20T08:56:28.822Z,9.93
2022-10-20T08:57:36.221Z,9.96
2022-10-20T08:58:43.449Z,9.99
2022-10-20T08:59:45.511Z,10.02
2022-10-20T09:00:56.870Z,10.05
2022-10-20T09:01:59.123Z,10.07
2022-10-20T09:03:07.477Z,10.09
2022-10-20T09:04:19.647Z,10.12
2022-10-20T09:05:26.811Z,10.06
2022-10-20T09:06:29.021Z,10.16
2022-10-20T09:07:35.794Z,10.18
2022-10-20T09:08:40.839Z,10.20
2022-10-20T09:09:43.324Z,10.24
2022-10-20T09:10:49.234Z,10.21
2022-10-20T09:11:52.934Z,10.25
2022-10-20T09:12:56.102Z,10.32
2022-10-20T09:13:59.188Z,10.30
2022-10-20T09:15:02.332Z,10.37
2022-10-20T09:16:21.980Z,10.39
2022-10-20T09:17:36.990Z,10.42
2022-10-20T09:18:40.925Z,10.44
2022-10-20T09:19:47.388Z,10.44
2022-10-20T09:20:54.847Z,10.45
2022-10-20T09:22:06.084Z,10.44
2022-10-20T09:23:35.274Z,10.42
2022-10-20T09:24:38.108Z,10.41
2022-10-20T09:25:42.215Z,10.40
2022-10-20T09:27:02.449Z,10.39
2022-10-20T09:28:05.613Z,10.40
2022-10-20T09:29:14.461Z,10.41
2022-10-20T09:30:20.354Z,10.42
2022-10-20T09:31:33.410Z,10.45
2022-10-20T09:32:51.658Z,10.45
2022-10-20T09:33:54.748Z,10.47
2022-10-20T09:35:12.485Z,10.52
2022-10-20T09:36:18.585Z,10.55
2022-10-20T09:37:20.788Z,10.58
2022-10-20T09:38:29.541Z,10.58
2022-10-20T09:39:42.120Z,10.59
2022-10-20T09:40:47.461Z,10.68
2022-10-20T09:41:51.036Z,10.70
2022-10-20T09:42:57.421Z,10.71
2022-10-20T09:44:02.788Z,10.73
2022-10-20T09:45:08.526Z,10.76
2022-10-20T09:46:12.866Z,10.62
2022-10-20T09:47:18.020Z,10.78
2022-10-20T09:48:23.945Z,10.79
2022-10-20T09:49:31.702Z,10.82
2022-10-20T09:50:36.127Z,10.81
2022-10-20T09:51:39.641Z,10.89
2022-10-20T09:52:47.832Z,10.91
2022-10-20T09:53:55.077Z,10.95
2022-10-20T09:55:03.067Z,10.93
2022-10-20T09:56:07.127Z,11.01
2022-10-20T09:57:19.293Z,11.06
2022-10-20T09:58:28.207Z,11.11
2022-10-20T09:59:34.023Z,11.13
2022-10-20T10:00:40.805Z,11.10
2022-10-20T10:01:54.884Z,11.22
2022-10-20T10:03:21.372Z,11.28
2022-10-20T10:04:34.044Z,11.32
2022-10-20T10:05:36.730Z,11.36
2022-10-20T10:06:46.279Z,11.42
2022-10-20T10:07:59.455Z,11.45
2022-10-20T10:09:03.365Z,11.49
2022-10-20T10:10:08.781Z,11.51
2022-10-20T10:11:17.597Z,11.53
2022-10-20T10:12:21.183Z,11.51
2022-10-20T10:13:25.795Z,11.53
2022-10-20T10:14:29.864Z,11.51
2022-10-20T10:15:35.745Z,11.51
2022-10-20T10:16:43.728Z,11.52
2022-10-20T10:17:45.772Z,11.51
2022-10-20T10:19:00.705Z,11.51
2022-10-20T10:20:09.094Z,11.51
2022-10-20T10:21:14.972Z,11.51
2022-10-20T10:22:18.079Z,11.50
2022-10-20T10:23:22.835Z,11.47
2022-10-20T10:24:43.062Z,11.53
2022-10-20T10:25:45.128Z,11.54
2022-10-20T10:26:54.204Z,11.56
2022-10-20T10:27:59.576Z,11.60
2022-10-20T10:29:02.669Z,11.61
2022-10-20T10:30:28.550Z,11.64
2022-10-20T10:31:34.032Z,11.61
2022-10-20T10:32:45.380Z,11.67
2022-10-20T10:33:51.130Z,11.69
2022-10-20T10:35:08.799Z,11.71
2022-10-20T10:36:18.639Z,11.74
2022-10-20T10:38:23.772Z,11.79
2022-10-20T10:39:31.028Z,11.84
2022-10-20T10:40:41.877Z,11.87
2022-10-20T10:42:05.830Z,11.89
2022-10-20T10:43:30.501Z,11.92
2022-10-20T10:44:49.844Z,11.95
2022-10-20T10:45:56.686Z,11.96
2022-10-20T10:47:08.408Z,11.97
2022-10-20T10:48:32.418Z,11.98
2022-10-20T10:49:56.195Z,11.98
2022-10-20T10:51:00.309Z,11.99
2022-10-20T10:52:19.248Z,12.00
2022-10-20T10:53:32.608Z,12.01
2022-10-20T10:54:48.771Z,12.01
2022-10-20T10:55:58.761Z,11.98
2022-10-20T10:57:07.897Z,11.95
2022-10-20T10:58:26.791Z,11.94
2022-10-20T10:59:39.710Z,11.93
2022-10-20T11:00:51.684Z,11.93
2022-10-20T11:02:15.486Z,11.94
2022-10-20T11:03:55.895Z,11.97
2022-10-20T11:05:22.293Z,12.00
2022-10-20T11:06:34.919Z,12.02
2022-10-20T11:07:45.157Z,12.04
2022-10-20T11:09:04.632Z,12.04
2022-10-20T11:10:13.983Z,12.04
2022-10-20T11:11:29.610Z,12.01
2022-10-20T11:12:47.649Z,12.00
2022-10-20T11:13:55.570Z,11.99
2022-10-20T11:15:12.411Z,11.97
2022-10-20T11:16:29.731Z,11.93
2022-10-20T11:17:45.831Z,11.93
2022-10-20T11:19:08.072Z,11.93
2022-10-20T11:20:22.227Z,11.91
2022-10-20T11:21:35.590Z,11.91
2022-10-20T11:22:46.703Z,11.90
2022-10-20T11:24:10.336Z,11.89
2022-10-20T11:25:28.818Z,11.89
2022-10-20T11:26:34.942Z,11.90
2022-10-20T11:27:39.992Z,11.86
2022-10-20T11:28:46.281Z,11.91
2022-10-20T11:29:52.367Z,11.93
2022-10-20T11:30:56.110Z,11.96
2022-10-20T11:32:09.785Z,12.00
2022-10-20T11:33:14.913Z,12.06
2022-10-20T11:34:22.531Z,12.12
2022-10-20T11:35:33.206Z,12.17
2022-10-20T11:36:39.238Z,12.25
2022-10-20T11:37:49.368Z,12.31
2022-10-20T11:38:54.365Z,12.37
2022-10-20T11:40:07.748Z,12.41
2022-10-20T11:41:19.102Z,12.48
2022-10-20T11:42:31.206Z,12.52
2022-10-20T11:43:40.881Z,12.57
2022-10-20T11:44:45.336Z,12.61
2022-10-20T11:45:52.613Z,12.69
2022-10-20T11:47:01.713Z,12.72
2022-10-20T11:48:11.428Z,12.77
2022-10-20T11:49:14.547Z,12.81
2022-10-20T11:50:18.507Z,12.84
2022-10-20T11:51:46.936Z,12.86
2022-10-20T11:53:10.773Z,12.86
2022-10-20T11:54:27.538Z,12.86
2022-10-20T11:55:56.825Z,12.86
2022-10-20T11:57:14.231Z,12.85
2022-10-20T11:58:42.695Z,12.86
2022-10-20T12:00:09.155Z,12.87
2022-10-20T12:01:31.734Z,12.90
2022-10-20T12:03:05.688Z,12.92
2022-10-20T12:04:37.226Z,12.95
2022-10-20T12:06:15.726Z,13.00
2022-10-20T12:07:46.074Z,13.05
2022-10-20T12:09:19.948Z,13.10
2022-10-20T12:10:33.705Z,13.13
2022-10-20T12:11:42.098Z,13.15
2022-10-20T12:12:55.937Z,13.20
2022-10-20T12:14:05.039Z,13.23
2022-10-20T12:15:22.711Z,13.25
2022-10-20T12:17:02.831Z,13.30
2022-10-20T12:18:08.238Z,13.28
2022-10-20T12:19:17.702Z,13.37
2022-10-20T12:20:49.667Z,13.39
2022-10-20T12:21:56.977Z,13.42
2022-10-20T12:23:02.176Z,13.45
2022-10-20T12:24:32.353Z,13.46
2022-10-20T12:25:44.323Z,13.49
2022-10-20T12:27:18.783Z,13.50
2022-10-20T12:28:40.465Z,13.47
2022-10-20T12:30:02.607Z,13.45
2022-10-20T12:31:05.751Z,13.45
2022-10-20T12:32:46.682Z,13.42
2022-10-20T12:34:03.837Z,13.39
2022-10-20T12:35:28.214Z,13.38
2022-10-20T12:36:35.133Z,13.38
2022-10-20T12:37:42.109Z,13.36
2022-10-20T12:38:51.853Z,13.38
2022-10-20T12:39:55.681Z,13.39
2022-10-20T12:41:11.438Z,13.38
2022-10-20T12:42:25.437Z,13.36
2022-10-20T12:43:34.717Z,13.36
2022-10-20T12:44:43.837Z,13.36
2022-10-20T12:45:46.012Z,13.37
2022-10-20T12:46:55.568Z,13.38
2022-10-20T12:48:00.249Z,13.38
2022-10-20T12:49:07.986Z,13.43
2022-10-20T12:50:29.424Z,13.48
2022-10-20T12:51:36.858Z,13.55
2022-10-20T12:52:41.574Z,13.65
2022-10-20T12:53:43.970Z,13.76
2022-10-20T12:54:54.800Z,13.85
2022-10-20T12:56:31.741Z,14.07
2022-10-20T12:57:42.020Z,14.21
2022-10-20T12:59:01.594Z,14.36
2022-10-20T13:00:30.530Z,14.52
2022-10-20T13:02:14.692Z,14.76
2022-10-20T13:03:40.178Z,14.95
2022-10-20T13:04:55.589Z,15.04
2022-10-20T13:05:59.497Z,15.05
2022-10-20T13:07:01.598Z,15.03
2022-10-20T13:08:22.924Z,14.96
2022-10-20T13:09:26.026Z,14.87
2022-10-20T13:10:32.245Z,14.79
2022-10-20T13:11:46.037Z,14.70
2022-10-20T13:12:49.042Z,14.63
2022-10-20T13:14:03.073Z,14.55
2022-10-20T13:15:13.003Z,14.49
2022-10-20T13:16:21.561Z,14.44
2022-10-20T13:17:37.966Z,14.42
2022-10-20T13:18:46.366Z,14.37
2022-10-20T13:20:00.390Z,14.37
2022-10-20T13:21:22.733Z,14.34
2022-10-20T13:22:39.052Z,14.34
2022-10-20T13:23:45.468Z,14.32
2022-10-20T13:24:49.218Z,14.32
2022-10-20T13:25:55.372Z,14.29
2022-10-20T13:27:03.862Z,14.32
2022-10-20T13:28:14.990Z,14.32
2022-10-20T13:29:27.816Z,14.25
2022-10-20T13:30:31.445Z,14.25
2022-10-20T13:31:41.383Z,14.21
2022-10-20T13:33:18.149Z,14.16
2022-10-20T13:34:24.274Z,14.13
2022-10-20T13:35:30.510Z,14.11
2022-10-20T13:36:52.862Z,14.08
2022-10-20T13:38:01.582Z,14.05
2022-10-20T13:39:13.204Z,14.03
2022-10-20T13:40:24.311Z,14.02
2022-10-20T13:41:35.318Z,14.01
2022-10-20T13:42:49.609Z,14.01
2022-10-20T13:44:03.950Z,14.01
2022-10-20T13:45:19.409Z,13.99
2022-10-20T13:46:38.532Z,13.97
2022-10-20T13:47:49.205Z,13.96
2022-10-20T13:49:06.505Z,13.94
2022-10-20T13:50:12.593Z,13.93
2022-10-20T13:51:21.011Z,13.89
2022-10-20T13:52:34.371Z,13.93
2022-10-20T13:53:41.070Z,13.94
2022-10-20T13:54:47.929Z,13.94
2022-10-20T13:55:59.266Z,13.95
2022-10-20T13:57:03.977Z,13.97
2022-10-20T13:58:09.761Z,13.97
2022-10-20T13:59:21.109Z,13.99
2022-10-20T14:00:28.579Z,13.99
2022-10-20T14:01:32.646Z,13.99
2022-10-20T14:02:37.278Z,14.00
2022-10-20T14:03:43.417Z,13.99
2022-10-20T14:04:46.521Z,14.00
2022-10-20T14:05:48.630Z,14.00
2022-10-20T14:06:51.754Z,13.87
2022-10-20T14:07:53.957Z,14.00
2022-10-20T14:08:58.154Z,14.01
2022-10-20T14:10:00.355Z,14.01
2022-10-20T14:11:06.810Z,14.01
2022-10-20T14:12:16.121Z,14.01
2022-10-20T14:13:21.966Z,13.95
2022-10-20T14:14:27.097Z,13.99
2022-10-20T14:15:33.098Z,13.98
2022-10-20T14:16:36.137Z,13.95
2022-10-20T14:17:40.818Z,13.93
2022-10-20T14:18:43.090Z,13.90
2022-10-20T14:19:46.966Z,13.86
2022-10-20T14:20:55.496Z,13.83
2022-10-20T14:22:00.523Z,13.80
2022-10-20T14:23:03.212Z,13.78
2022-10-20T14:24:13.637Z,13.75
2022-10-20T14:25:16.657Z,13.66
2022-10-20T14:26:22.753Z,13.68
2022-10-20T14:27:29.563Z,13.64
2022-10-20T14:28:35.856Z,13.63
2022-10-20T14:29:39.961Z,13.60
2022-10-20T14:30:43.846Z,13.57
2022-10-20T14:31:50.616Z,13.56
2022-10-20T14:32:54.582Z,13.53
2022-10-20T14:33:58.195Z,13.50
2022-10-20T14:35:02.561Z,13.45
2022-10-20T14:36:06.390Z,13.44
2022-10-20T14:37:22.287Z,13.39
2022-10-20T14:38:30.510Z,13.34
2022-10-20T14:39:36.582Z,13.30
2022-10-20T14:40:39.701Z,13.26
2022-10-20T14:41:46.019Z,13.22
2022-10-20T14:42:50.666Z,13.17
2022-10-20T14:43:56.503Z,13.15
2022-10-20T14:45:01.309Z,13.11
2022-10-20T14:46:06.112Z,13.06
2022-10-20T14:47:12.742Z,13.03